createdAt,value
2023-03-24T00:02:16.602Z,45.49
2023-03-24T00:04:47.326Z,45.32
2023-03-24T00:07:16.207Z,45.26
2023-03-24T00:09:46.337Z,45.24
2023-03-24T00:12:14.613Z,45.26
2023-03-24T00:14:48.328Z,45.30
2023-03-24T00:17:17.699Z,45.27
2023-03-24T00:19:46.509Z,45.25
2023-03-24T00:23:33.150Z,45.22
2023-03-24T00:26:38.527Z,45.28
2023-03-24T00:29:11.084Z,45.24
2023-03-24T00:31:40.564Z,45.24
2023-03-24T00:34:09.241Z,45.22
2023-03-24T00:36:39.664Z,45.35
2023-03-24T00:39:08.589Z,45.35
2023-03-24T00:41:47.905Z,45.40
2023-03-24T00:45:13.207Z,45.48
2023-03-24T00:48:20.498Z,45.61
2023-03-24T00:50:49.410Z,45.60
2023-03-24T00:53:18.183Z,45.72
2023-03-24T00:55:50.312Z,45.78
2023-03-24T00:59:15.331Z,45.85
2023-03-24T01:02:02.985Z,45.91
2023-03-24T01:04:31.912Z,45.97
2023-03-24T01:07:00.253Z,46.06
2023-03-24T01:09:28.839Z,46.09
2023-03-24T01:11:58.872Z,46.10
2023-03-24T01:14:27.646Z,46.08
2023-03-24T01:18:13.648Z,46.06
2023-03-24T01:21:18.464Z,46.17
2023-03-24T01:23:47.108Z,46.21
2023-03-24T01:26:16.256Z,46.27
2023-03-24T01:28:44.448Z,46.33
2023-03-24T01:31:13.002Z,46.44
2023-03-24T01:33:41.291Z,46.43
2023-03-24T01:36:10.474Z,46.51
2023-03-24T01:38:38.827Z,46.53
2023-03-24T01:41:07.702Z,46.58
2023-03-24T01:43:36.655Z,46.70
2023-03-24T01:46:18.891Z,46.80
2023-03-24T01:49:08.138Z,46.86
2023-03-24T01:51:40.893Z,46.88
2023-03-24T01:54:17.168Z,46.83
2023-03-24T01:56:49.437Z,46.94
2023-03-24T01:59:21.000Z,46.94
2023-03-24T02:02:04.238Z,46.97
2023-03-24T02:04:44.958Z,47.01
2023-03-24T02:07:48.274Z,47.09
2023-03-24T02:10:18.230Z,47.06
2023-03-24T02:12:46.734Z,47.15
2023-03-24T02:15:17.654Z,47.18
2023-03-24T02:17:54.790Z,47.21
2023-03-24T02:20:39.385Z,47.30
2023-03-24T02:23:41.655Z,47.38
2023-03-24T02:26:29.496Z,47.50
2023-03-24T02:29:06.674Z,47.55
2023-03-24T02:32:00.492Z,47.65
2023-03-24T02:34:30.698Z,47.75
2023-03-24T02:37:18.895Z,47.82
2023-03-24T02:40:08.921Z,47.89
2023-03-24T02:42:57.256Z,47.98
2023-03-24T02:45:32.705Z,48.06
2023-03-24T02:48:09.221Z,48.04
2023-03-24T02:51:05.108Z,48.08
2023-03-24T02:53:56.111Z,48.23
2023-03-24T02:56:58.688Z,48.34
2023-03-24T02:59:49.585Z,48.27
2023-03-24T03:02:47.275Z,48.18
2023-03-24T03:05:22.698Z,48.30
2023-03-24T03:07:51.689Z,48.38
2023-03-24T03:10:29.961Z,48.46
2023-03-24T03:13:02.786Z,48.46
2023-03-24T03:15:43.413Z,48.42
2023-03-24T03:18:16.644Z,48.44
2023-03-24T03:20:54.922Z,48.41
2023-03-24T03:23:31.538Z,48.43
2023-03-24T03:26:06.201Z,48.49
2023-03-24T03:28:38.222Z,48.58
2023-03-24T03:31:08.538Z,48.57
2023-03-24T03:34:06.441Z,48.58
2023-03-24T03:36:38.606Z,48.71
2023-03-24T03:39:16.286Z,48.72
2023-03-24T03:41:45.694Z,48.74
2023-03-24T03:44:14.385Z,48.84
2023-03-24T03:46:43.195Z,48.89
2023-03-24T03:49:13.287Z,48.93
2023-03-24T03:51:47.914Z,48.87
2023-03-24T03:54:17.881Z,48.87
2023-03-24T03:56:48.622Z,48.95
2023-03-24T03:59:25.653Z,48.98
2023-03-24T04:01:54.662Z,49.02
2023-03-24T04:06:18.012Z,49.46
2023-03-24T04:08:48.247Z,49.23
2023-03-24T04:11:30.129Z,49.10
2023-03-24T04:14:31.994Z,49.15
2023-03-24T04:17:32.857Z,49.20
2023-03-24T04:20:24.561Z,49.23
2023-03-24T04:22:54.317Z,49.27
2023-03-24T04:25:42.472Z,49.27
2023-03-24T04:28:20.425Z,49.41
2023-03-24T04:30:52.593Z,49.47
2023-03-24T04:33:30.704Z,49.49
2023-03-24T04:36:18.376Z,49.52
2023-03-24T04:39:06.775Z,49.53
2023-03-24T04:41:44.219Z,49.49
2023-03-24T04:44:22.193Z,49.61
2023-03-24T04:47:09.187Z,49.62
2023-03-24T04:49:40.034Z,49.57
2023-03-24T04:52:09.529Z,49.59
2023-03-24T04:54:38.707Z,49.48
2023-03-24T04:57:07.896Z,49.45
2023-03-24T04:59:46.356Z,49.53
2023-03-24T05:02:15.857Z,49.53
2023-03-24T05:04:51.274Z,49.57
2023-03-24T05:07:27.450Z,49.59
2023-03-24T05:10:00.661Z,49.55
2023-03-24T05:12:38.389Z,49.67
2023-03-24T05:15:18.598Z,49.73
2023-03-24T05:17:48.325Z,49.81
2023-03-24T05:20:20.997Z,49.91
2023-03-24T05:22:50.905Z,49.92
2023-03-24T05:25:20.213Z,49.93
2023-03-24T05:27:49.285Z,49.92
2023-03-24T05:30:21.705Z,49.92
2023-03-24T05:32:52.387Z,49.96
2023-03-24T05:35:20.757Z,49.92
2023-03-24T05:37:49.928Z,49.84
2023-03-24T05:40:18.532Z,49.86
2023-03-24T05:42:54.019Z,49.77
2023-03-24T05:45:30.502Z,49.73
2023-03-24T05:47:59.693Z,49.76
2023-03-24T05:50:38.307Z,49.68
2023-03-24T05:53:07.295Z,49.43
2023-03-24T05:55:58.929Z,49.46
2023-03-24T05:58:51.672Z,49.40
2023-03-24T06:01:20.259Z,49.47
2023-03-24T06:03:49.844Z,49.33
2023-03-24T06:06:18.857Z,49.33
2023-03-24T06:08:54.639Z,49.28
2023-03-24T06:11:25.039Z,49.26
2023-03-24T06:14:00.689Z,49.18
2023-03-24T06:16:39.243Z,49.13
2023-03-24T06:19:08.407Z,48.89
2023-03-24T06:21:55.026Z,49.04
2023-03-24T06:24:29.744Z,49.00
2023-03-24T06:27:03.669Z,48.94
2023-03-24T06:29:34.137Z,48.94
2023-03-24T06:32:02.556Z,48.92
2023-03-24T06:34:32.479Z,48.81
2023-03-24T06:37:17.246Z,48.52
2023-03-24T06:39:45.985Z,48.35
2023-03-24T06:42:14.868Z,48.30
2023-03-24T06:44:43.502Z,48.36
2023-03-24T06:47:12.100Z,48.18
2023-03-24T06:49:42.277Z,48.29
2023-03-24T06:52:10.403Z,48.34
2023-03-24T06:54:45.008Z,48.30
2023-03-24T06:57:14.649Z,47.96
2023-03-24T07:00:10.518Z,47.73
2023-03-24T07:02:50.129Z,47.71
2023-03-24T07:05:19.231Z,47.87
2023-03-24T07:10:41.318Z,48.03
2023-03-24T07:13:09.971Z,48.12
2023-03-24T07:15:38.560Z,48.24
2023-03-24T07:18:10.169Z,48.33
2023-03-24T07:20:54.102Z,48.50
2023-03-24T07:23:28.229Z,48.67
2023-03-24T07:26:05.174Z,48.74
2023-03-24T07:28:48.629Z,48.98
2023-03-24T07:31:27.181Z,49.01
2023-03-24T07:34:01.997Z,48.83
2023-03-24T07:36:30.809Z,48.90
2023-03-24T07:38:59.449Z,49.15
2023-03-24T07:41:33.054Z,49.20
2023-03-24T07:44:04.195Z,49.26
2023-03-24T07:46:42.613Z,49.20
2023-03-24T07:49:19.298Z,49.25
2023-03-24T07:52:00.259Z,49.16
2023-03-24T07:54:38.363Z,49.10
2023-03-24T07:57:08.656Z,49.12
2023-03-24T07:59:40.499Z,49.04
2023-03-24T08:02:19.809Z,49.01
2023-03-24T08:04:56.856Z,49.05
2023-03-24T08:07:42.918Z,49.11
2023-03-24T08:10:13.497Z,49.03
2023-03-24T08:12:45.597Z,48.87
2023-03-24T08:15:14.671Z,48.78
2023-03-24T08:17:43.390Z,48.81
2023-03-24T08:20:21.495Z,48.65
2023-03-24T08:22:50.261Z,48.24
2023-03-24T08:25:19.344Z,48.10
2023-03-24T08:27:51.092Z,48.02
2023-03-24T08:30:21.162Z,47.92
2023-03-24T08:32:54.214Z,47.72
2023-03-24T08:35:25.271Z,47.71
2023-03-24T08:37:53.628Z,47.58
2023-03-24T08:40:24.460Z,47.45
2023-03-24T08:43:00.352Z,47.47
2023-03-24T08:45:30.719Z,47.50
2023-03-24T08:48:01.486Z,47.29
2023-03-24T08:50:34.617Z,47.12
2023-03-24T08:53:04.288Z,47.07
2023-03-24T08:55:33.265Z,46.98
2023-03-24T08:58:01.853Z,46.86
2023-03-24T09:00:30.482Z,46.73
2023-03-24T09:03:07.774Z,46.58
2023-03-24T09:05:44.402Z,46.50
2023-03-24T09:08:23.526Z,46.43
2023-03-24T09:10:51.911Z,46.36
2023-03-24T09:13:21.110Z,46.29
2023-03-24T09:15:52.370Z,46.29
2023-03-24T09:18:20.932Z,45.98
2023-03-24T09:20:50.263Z,45.69
2023-03-24T09:23:19.702Z,45.66
2023-03-24T09:25:50.737Z,45.80
2023-03-24T09:28:24.383Z,45.54
2023-03-24T09:30:59.630Z,45.47
2023-03-24T09:33:29.722Z,45.45
2023-03-24T09:36:00.065Z,45.60
2023-03-24T09:38:30.824Z,45.52
2023-03-24T09:41:04.301Z,44.85
2023-03-24T09:43:40.972Z,44.76
2023-03-24T09:48:37.018Z,44.64
2023-03-24T09:51:13.608Z,44.22
2023-03-24T09:54:00.675Z,44.05
2023-03-24T09:56:30.046Z,43.50
2023-03-24T09:59:01.207Z,43.61
2023-03-24T10:01:29.740Z,43.38
2023-03-24T10:03:59.155Z,42.93
2023-03-24T10:06:38.656Z,42.52
2023-03-24T10:09:27.884Z,42.40
2023-03-24T10:12:04.931Z,42.45
2023-03-24T10:14:44.910Z,42.48
2023-03-24T10:17:36.599Z,42.66
2023-03-24T10:20:24.449Z,42.28
2023-03-24T10:23:11.161Z,41.73
2023-03-24T10:25:54.897Z,41.77
2023-03-24T10:28:26.247Z,41.77
2023-03-24T10:30:55.962Z,41.44
2023-03-24T10:33:24.146Z,41.16
2023-03-24T10:42:48.977Z,40.16
2023-03-24T10:45:25.144Z,39.57
2023-03-24T10:47:54.830Z,39.15
2023-03-24T10:50:27.337Z,38.98
2023-03-24T10:52:55.965Z,38.68
2023-03-24T10:55:32.486Z,38.25
2023-03-24T10:58:00.686Z,38.15
2023-03-24T11:00:31.801Z,37.95
2023-03-24T11:03:08.537Z,37.88
2023-03-24T11:05:38.449Z,37.79
2023-03-24T11:08:15.166Z,37.47
2023-03-24T11:10:45.305Z,37.15
2023-03-24T11:13:23.511Z,36.64
2023-03-24T11:16:17.204Z,36.69
2023-03-24T11:19:04.495Z,36.49
2023-03-24T11:21:35.513Z,36.14
2023-03-24T11:24:09.616Z,36.14
2023-03-24T11:26:39.061Z,36.14
2023-03-24T11:29:30.580Z,36.18
2023-03-24T11:32:03.498Z,36.24
2023-03-24T11:34:34.569Z,36.54
2023-03-24T11:37:04.059Z,36.71
2023-03-24T11:39:34.303Z,36.73
2023-03-24T11:42:02.450Z,36.55
2023-03-24T11:44:45.173Z,36.53
2023-03-24T11:47:31.143Z,36.41
2023-03-24T11:50:11.493Z,36.49
2023-03-24T11:52:48.166Z,36.32
2023-03-24T11:55:18.108Z,36.47
2023-03-24T11:57:58.209Z,36.68
2023-03-24T12:00:36.126Z,36.69
2023-03-24T12:03:26.630Z,36.79
2023-03-24T12:06:28.318Z,36.46
2023-03-24T12:08:59.348Z,36.18
2023-03-24T12:11:55.031Z,36.02
2023-03-24T12:14:35.062Z,35.85
2023-03-24T12:17:14.717Z,35.61
2023-03-24T12:19:52.313Z,35.39
2023-03-24T12:22:56.005Z,35.25
2023-03-24T12:25:46.088Z,34.79
2023-03-24T12:28:23.724Z,34.75
2023-03-24T12:31:19.596Z,34.83
2023-03-24T12:34:25.369Z,34.99
2023-03-24T12:37:07.936Z,34.80
2023-03-24T12:39:45.619Z,34.57
2023-03-24T12:42:14.597Z,34.41
2023-03-24T12:44:48.370Z,34.47
2023-03-24T12:47:19.674Z,33.91
2023-03-24T12:49:54.474Z,34.20
2023-03-24T12:52:38.851Z,34.57
2023-03-24T12:55:14.390Z,34.59
2023-03-24T12:57:48.840Z,34.83
2023-03-24T13:00:23.365Z,34.91
2023-03-24T13:02:53.293Z,34.93
2023-03-24T13:05:24.390Z,35.06
2023-03-24T13:07:54.721Z,34.76
2023-03-24T13:10:26.031Z,34.40
2023-03-24T13:13:00.860Z,33.92
2023-03-24T13:15:34.983Z,33.50
2023-03-24T13:18:09.708Z,33.38
2023-03-24T13:20:51.055Z,33.45
2023-03-24T13:23:28.448Z,32.47
2023-03-24T13:25:56.611Z,32.52
2023-03-24T13:28:35.702Z,32.40
2023-03-24T13:31:03.828Z,32.15
2023-03-24T13:33:32.421Z,31.64
2023-03-24T13:36:45.233Z,31.29
2023-03-24T13:39:20.524Z,30.27
2023-03-24T13:41:56.333Z,29.56
2023-03-24T13:44:26.415Z,28.72
2023-03-24T13:47:10.158Z,27.91
2023-03-24T13:49:40.812Z,27.66
2023-03-24T13:52:46.039Z,27.31
2023-03-24T13:55:18.710Z,27.02
2023-03-24T13:58:01.778Z,27.52
2023-03-24T14:00:34.127Z,28.42
2023-03-24T14:03:06.149Z,29.37
2023-03-24T14:05:42.166Z,29.80
2023-03-24T14:08:11.627Z,30.37
2023-03-24T14:10:42.977Z,30.77
2023-03-24T14:13:14.105Z,31.02
2023-03-24T14:15:54.237Z,31.65
2023-03-24T14:18:26.097Z,32.01
2023-03-24T14:20:58.474Z,31.79
2023-03-24T14:23:38.773Z,31.83
2023-03-24T14:26:19.762Z,32.07
2023-03-24T14:28:48.870Z,32.39
2023-03-24T14:31:24.511Z,32.82
2023-03-24T14:33:52.911Z,33.07
2023-03-24T14:36:31.012Z,32.92
2023-03-24T14:39:13.804Z,32.95
2023-03-24T14:41:42.205Z,33.03
2023-03-24T14:44:11.573Z,33.34
2023-03-24T14:46:48.228Z,33.43
2023-03-24T14:49:24.824Z,33.39
2023-03-24T14:52:29.080Z,33.17
2023-03-24T14:55:06.054Z,33.26
2023-03-24T14:57:41.961Z,33.10
2023-03-24T15:00:32.420Z,33.25
2023-03-24T15:03:12.091Z,33.47
2023-03-24T15:05:40.627Z,33.69
2023-03-24T15:08:18.514Z,33.79
2023-03-24T15:10:47.537Z,33.92
2023-03-24T15:13:49.656Z,34.04
2023-03-24T15:16:21.132Z,34.38
2023-03-24T15:19:02.374Z,34.51
2023-03-24T15:21:34.995Z,34.57
2023-03-24T15:24:22.260Z,34.76
2023-03-24T15:26:53.462Z,34.74
2023-03-24T15:29:21.929Z,34.83
2023-03-24T15:31:50.277Z,35.10
2023-03-24T15:34:31.593Z,35.08
2023-03-24T15:37:05.524Z,35.27
2023-03-24T15:39:39.489Z,35.45
2023-03-24T15:42:09.675Z,35.57
2023-03-24T15:44:39.518Z,35.74
2023-03-24T15:47:16.707Z,35.70
2023-03-24T15:50:13.746Z,35.73
2023-03-24T15:52:41.866Z,35.91
2023-03-24T15:55:34.923Z,36.09
2023-03-24T15:58:24.226Z,36.16
2023-03-24T16:00:53.318Z,36.26
2023-03-24T16:03:26.615Z,36.21
2023-03-24T16:05:56.293Z,36.35
2023-03-24T16:08:35.861Z,36.33
2023-03-24T16:11:11.181Z,36.44
2023-03-24T16:13:47.684Z,36.74
2023-03-24T16:16:24.863Z,36.69
2023-03-24T16:18:53.760Z,36.69
2023-03-24T16:21:22.174Z,36.82
2023-03-24T16:23:53.709Z,36.88
2023-03-24T16:26:26.374Z,36.93
2023-03-24T16:29:14.416Z,36.91
2023-03-24T16:31:44.298Z,37.05
2023-03-24T16:34:12.387Z,37.12
2023-03-24T16:36:40.444Z,37.20
2023-03-24T16:39:15.955Z,37.18
2023-03-24T16:41:46.804Z,37.18
2023-03-24T16:44:17.505Z,37.22
2023-03-24T16:46:46.884Z,37.34
2023-03-24T16:49:17.137Z,37.47
2023-03-24T16:51:45.773Z,37.63
2023-03-24T16:54:15.115Z,37.62
2023-03-24T16:56:44.209Z,37.65
2023-03-24T16:59:15.050Z,37.88
2023-03-24T17:01:46.344Z,37.95
2023-03-24T17:04:20.111Z,38.08
2023-03-24T17:06:52.972Z,38.00
2023-03-24T17:09:23.080Z,38.03
2023-03-24T17:11:56.197Z,38.11
2023-03-24T17:14:24.850Z,38.28
2023-03-24T17:16:54.229Z,38.24
2023-03-24T17:22:38.473Z,38.41
2023-03-24T17:25:13.337Z,38.31
2023-03-24T17:27:41.745Z,38.38
2023-03-24T17:30:18.323Z,38.64
2023-03-24T17:32:48.065Z,38.74
2023-03-24T17:35:22.052Z,39.01
2023-03-24T17:37:51.394Z,39.21
2023-03-24T17:40:20.503Z,39.29
2023-03-24T17:42:52.116Z,39.56
2023-03-24T17:45:21.266Z,39.55
2023-03-24T17:47:55.558Z,39.62
2023-03-24T17:50:38.516Z,39.81
2023-03-24T17:53:10.597Z,40.14
2023-03-24T17:55:39.395Z,40.39
2023-03-24T17:58:08.922Z,40.43
2023-03-24T18:00:41.536Z,40.52
2023-03-24T18:03:11.399Z,40.64
2023-03-24T18:05:44.983Z,40.86
2023-03-24T18:08:13.162Z,41.53
2023-03-24T18:10:41.201Z,41.84
2023-03-24T18:13:15.443Z,42.20
2023-03-24T18:15:43.631Z,42.59
2023-03-24T18:18:18.253Z,42.61
2023-03-24T18:20:53.110Z,42.65
2023-03-24T18:23:23.646Z,42.52
2023-03-24T18:26:03.898Z,42.28
2023-03-24T18:28:38.952Z,41.76
2023-03-24T18:31:16.282Z,41.67
2023-03-24T18:33:46.245Z,41.76
2023-03-24T18:36:18.473Z,41.68
2023-03-24T18:38:47.891Z,41.97
2023-03-24T18:41:18.632Z,42.91
2023-03-24T18:43:48.315Z,43.41
2023-03-24T18:46:22.065Z,44.09
2023-03-24T18:48:53.219Z,44.46
2023-03-24T18:51:21.690Z,45.01
2023-03-24T18:53:50.296Z,45.42
2023-03-24T18:56:18.910Z,45.65
2023-03-24T18:58:48.720Z,44.97
2023-03-24T19:01:23.127Z,44.70
2023-03-24T19:03:52.400Z,44.59
2023-03-24T19:06:21.661Z,45.34
2023-03-24T19:08:51.112Z,45.56
2023-03-24T19:11:19.390Z,45.76
2023-03-24T19:13:50.670Z,46.18
2023-03-24T19:16:19.618Z,46.00
2023-03-24T19:18:48.730Z,45.67
2023-03-24T19:21:19.837Z,45.48
2023-03-24T19:23:49.948Z,45.22
2023-03-24T19:26:22.571Z,45.28
2023-03-24T19:28:53.319Z,45.16
2023-03-24T19:31:21.630Z,45.48
2023-03-24T19:33:51.706Z,45.66
2023-03-24T19:36:19.959Z,46.56
2023-03-24T19:38:48.008Z,47.11
2023-03-24T19:41:16.366Z,47.33
2023-03-24T19:43:47.616Z,47.42
2023-03-24T19:46:22.049Z,47.63
2023-03-24T19:48:50.767Z,48.16
2023-03-24T19:51:32.817Z,48.62
2023-03-24T19:54:01.177Z,49.03
2023-03-24T19:56:29.640Z,49.37
2023-03-24T19:58:57.933Z,49.45
2023-03-24T20:01:26.434Z,49.13
2023-03-24T20:03:54.700Z,48.91
2023-03-24T20:06:23.295Z,48.88
2023-03-24T20:08:51.822Z,49.13
2023-03-24T20:11:19.985Z,49.19
2023-03-24T20:13:48.395Z,49.07
2023-03-24T20:16:17.802Z,49.18
2023-03-24T20:18:45.987Z,49.34
2023-03-24T20:21:19.032Z,49.51
2023-03-24T20:23:47.458Z,49.95
2023-03-24T20:26:21.929Z,49.95
2023-03-24T20:28:51.347Z,49.94
2023-03-24T20:31:19.720Z,50.21
2023-03-24T20:33:49.208Z,50.42
2023-03-24T20:36:17.511Z,50.58
2023-03-24T20:38:45.899Z,50.66
2023-03-24T20:41:14.058Z,50.91
2023-03-24T20:43:42.680Z,51.07
2023-03-24T20:46:17.347Z,51.13
2023-03-24T20:48:46.312Z,51.24
2023-03-24T20:51:14.751Z,51.34
2023-03-24T20:53:44.955Z,50.96
2023-03-24T20:56:15.212Z,50.48
2023-03-24T20:58:48.023Z,50.14
2023-03-24T21:01:24.069Z,49.87
2023-03-24T21:03:52.885Z,49.81
2023-03-24T21:06:21.191Z,49.64
2023-03-24T21:08:49.480Z,49.46
2023-03-24T21:11:20.852Z,49.48
2023-03-24T21:13:49.278Z,49.42
2023-03-24T21:16:19.741Z,49.38
2023-03-24T21:18:51.416Z,49.42
2023-03-24T21:21:20.587Z,49.29
2023-03-24T21:23:48.769Z,49.30
2023-03-24T21:26:18.303Z,49.32
2023-03-24T21:28:47.192Z,49.26
2023-03-24T21:31:24.168Z,49.23
2023-03-24T21:33:52.903Z,49.20
2023-03-24T21:36:21.412Z,49.22
2023-03-24T21:38:50.060Z,49.23
2023-03-24T21:41:18.808Z,49.23
2023-03-24T21:43:51.233Z,49.37
2023-03-24T21:46:26.458Z,49.34
2023-03-24T21:48:59.596Z,49.34
2023-03-24T21:51:37.009Z,49.39
2023-03-24T21:54:15.176Z,49.26
2023-03-24T21:56:44.139Z,49.30
2023-03-24T21:59:12.952Z,49.36
2023-03-24T22:01:42.892Z,49.39
2023-03-24T22:04:11.243Z,49.43
2023-03-24T22:06:40.144Z,49.38
2023-03-24T22:09:10.466Z,49.45
2023-03-24T22:11:43.018Z,49.40
2023-03-24T22:14:18.986Z,49.39
2023-03-24T22:16:47.438Z,49.44
2023-03-24T22:19:15.776Z,49.49
2023-03-24T22:21:44.067Z,49.59
2023-03-24T22:24:12.591Z,49.58
2023-03-24T22:26:40.671Z,49.55
2023-03-24T22:29:12.987Z,49.68
2023-03-24T22:31:43.637Z,49.65
2023-03-24T22:34:14.001Z,49.82
2023-03-24T22:36:43.475Z,49.95
2023-03-24T22:39:11.816Z,50.04
2023-03-24T22:41:44.038Z,50.02
2023-03-24T22:44:12.403Z,49.96
2023-03-24T22:46:40.731Z,50.07
2023-03-24T22:49:09.637Z,50.24
2023-03-24T22:51:37.822Z,50.35
2023-03-24T22:54:06.640Z,50.22
2023-03-24T22:56:35.449Z,50.22
2023-03-24T23:11:12.440Z,50.04
2023-03-24T23:14:06.301Z,49.01
2023-03-24T23:16:35.848Z,48.88
2023-03-24T23:19:09.728Z,48.92
2023-03-24T23:21:39.570Z,49.04
2023-03-24T23:24:08.006Z,49.16
2023-03-24T23:26:36.914Z,49.13
2023-03-24T23:29:06.112Z,49.02
2023-03-24T23:31:36.018Z,49.19
2023-03-24T23:34:07.701Z,49.08
2023-03-24T23:36:36.064Z,49.12
2023-03-24T23:39:05.925Z,49.30
2023-03-24T23:41:36.116Z,49.13
2023-03-24T23:44:04.383Z,49.18
2023-03-24T23:46:33.803Z,49.20
2023-03-24T23:49:02.063Z,49.18
2023-03-24T23:51:31.556Z,49.21
2023-03-24T23:53:59.852Z,49.08
2023-03-24T23:56:36.826Z,48.93
2023-03-24T23:59:06.247Z,48.91
